Cincinnati, Ohio
Traffic Map
Current Weather Conditions
Cincinnati, Ohio
Clear
Clear
69°
Feels Like: 69°
Wind Chill: 69° Ceiling: Unl
Heat Index: 69° Visibility: 10mi
Dew Point: 53° Wind: 6mph
Humidity: 57% Direction: 310° (NW)
Pressure: 30.11in Gusts: 0mph
Raw Report DataKLUK 250353Z AUTO 31005KT 10SM CLR 21/12 A3011 RMK AO2 SLP192 T02060117
Traffic Incident Summary
Active as of:
Severity:
Category:
InformationThere was an issue retrieving the traffic information for this location. Please try a different location or try again shortly.
Advertisements
Track Severe Weather on mobile